createdAt,value
2022-12-01T00:01:12.970Z,2.95
2022-12-01T00:06:18.786Z,2.93
2022-12-01T00:11:21.866Z,2.93
2022-12-01T00:16:25.113Z,2.98
2022-12-01T00:21:28.695Z,2.98
2022-12-01T00:26:31.796Z,3.03
2022-12-01T00:31:35.347Z,3.10
2022-12-01T00:36:39.037Z,3.16
2022-12-01T00:41:42.344Z,3.17
2022-12-01T00:46:45.552Z,3.18
2022-12-01T00:51:48.657Z,3.16
2022-12-01T00:56:51.970Z,3.13
2022-12-01T01:01:55.330Z,3.09
2022-12-01T01:06:58.898Z,3.09
2022-12-01T01:12:02.108Z,3.08
2022-12-01T01:17:05.801Z,3.08
2022-12-01T01:22:09.037Z,3.09
2022-12-01T01:27:12.346Z,3.11
2022-12-01T01:32:15.452Z,3.13
2022-12-01T01:37:18.866Z,3.16
2022-12-01T01:42:22.384Z,3.17
2022-12-01T01:47:31.117Z,3.13
2022-12-01T01:52:38.831Z,3.07
2022-12-01T01:57:44.404Z,3.03
2022-12-01T02:02:50.265Z,2.98
2022-12-01T02:07:56.790Z,2.95
2022-12-01T02:13:12.453Z,2.97
2022-12-01T02:18:21.497Z,3.01
2022-12-01T02:23:43.138Z,3.03
2022-12-01T02:29:24.542Z,3.02
2022-12-01T02:34:37.478Z,3.02
2022-12-01T02:40:27.074Z,3.05
2022-12-01T02:45:40.083Z,3.11
2022-12-01T02:50:46.387Z,3.20
2022-12-01T02:55:52.876Z,3.24
2022-12-01T03:01:08.375Z,3.30
2022-12-01T03:06:23.975Z,3.35
2022-12-01T03:11:38.041Z,3.31
2022-12-01T03:16:47.490Z,3.23
2022-12-01T03:22:14.458Z,3.15
2022-12-01T03:27:22.996Z,3.10
2022-12-01T03:32:32.653Z,3.07
2022-12-01T03:37:59.512Z,3.04
2022-12-01T03:43:08.851Z,3.01
2022-12-01T03:48:12.689Z,3.01
2022-12-01T03:53:23.985Z,3.09
2022-12-01T03:58:34.594Z,3.10
2022-12-01T04:03:38.184Z,3.11
2022-12-01T04:08:41.699Z,3.14
2022-12-01T04:13:45.010Z,3.18
2022-12-01T04:18:48.422Z,3.21
2022-12-01T04:24:01.217Z,3.24
2022-12-01T04:29:08.329Z,3.26
2022-12-01T04:34:11.873Z,3.25
2022-12-01T04:39:15.289Z,3.21
2022-12-01T04:44:18.703Z,3.23
2022-12-01T04:49:22.835Z,3.25
2022-12-01T04:54:26.343Z,3.23
2022-12-01T04:59:29.754Z,3.21
2022-12-01T05:04:34.500Z,3.19
2022-12-01T05:09:39.045Z,3.19
2022-12-01T05:14:42.453Z,3.23
2022-12-01T05:20:04.655Z,3.24
2022-12-01T05:25:08.429Z,3.23
2022-12-01T05:30:12.149Z,3.23
2022-12-01T05:35:50.996Z,3.21
2022-12-01T05:40:56.249Z,3.19
2022-12-01T05:45:59.633Z,3.19
2022-12-01T05:51:14.241Z,3.20
2022-12-01T05:56:17.496Z,3.21
2022-12-01T06:01:20.859Z,3.26
2022-12-01T06:06:24.272Z,3.33
2022-12-01T06:11:27.683Z,3.37
2022-12-01T06:16:31.155Z,3.35
2022-12-01T06:21:34.513Z,3.33
2022-12-01T06:26:37.922Z,3.31
2022-12-01T06:31:42.518Z,3.36
2022-12-01T06:36:45.979Z,3.41
2022-12-01T06:41:49.925Z,3.46
2022-12-01T06:46:53.214Z,3.49
2022-12-01T06:51:56.732Z,3.44
2022-12-01T06:57:00.041Z,3.40
2022-12-01T07:02:03.841Z,3.36
2022-12-01T07:07:07.482Z,3.41
2022-12-01T07:12:10.906Z,3.50
2022-12-01T07:17:14.309Z,3.56
2022-12-01T07:22:17.719Z,3.62
2022-12-01T07:27:21.167Z,3.57
2022-12-01T07:32:24.549Z,3.62
2022-12-01T07:37:27.962Z,3.67
2022-12-01T07:42:31.379Z,3.64
2022-12-01T07:47:34.683Z,3.65
2022-12-01T07:52:38.199Z,3.64
2022-12-01T07:57:41.715Z,3.65
2022-12-01T08:02:45.204Z,3.71
2022-12-01T08:07:48.788Z,3.76
2022-12-01T08:12:52.160Z,3.85
2022-12-01T08:17:55.469Z,3.92
2022-12-01T08:23:02.878Z,3.97
2022-12-01T08:28:06.187Z,3.93
2022-12-01T08:33:09.598Z,3.76
2022-12-01T08:38:13.013Z,3.71
2022-12-01T08:43:49.426Z,3.71
2022-12-01T08:48:42.058Z,3.76
2022-12-01T08:53:50.283Z,3.69
2022-12-01T08:58:55.035Z,3.66
2022-12-01T09:04:06.372Z,3.72
2022-12-01T09:09:19.593Z,3.71
2022-12-01T09:14:23.751Z,3.76
2022-12-01T09:19:28.777Z,3.81
2022-12-01T09:24:32.062Z,3.84
2022-12-01T09:29:35.475Z,3.91
2022-12-01T09:34:38.786Z,3.96
2022-12-01T09:39:42.200Z,4.05
2022-12-01T09:44:52.825Z,4.20
2022-12-01T09:49:58.550Z,4.29
2022-12-01T09:55:02.745Z,4.31
2022-12-01T10:00:09.272Z,4.40
2022-12-01T10:05:17.529Z,4.46
2022-12-01T10:10:33.603Z,4.44
2022-12-01T10:15:49.408Z,4.42
2022-12-01T10:21:20.776Z,4.56
2022-12-01T10:26:55.217Z,4.63
2022-12-01T10:32:04.675Z,4.65
2022-12-01T10:37:19.193Z,4.67
2022-12-01T10:42:25.322Z,4.75
2022-12-01T10:47:29.558Z,4.84
2022-12-01T10:52:39.110Z,4.88
2022-12-01T10:57:45.872Z,4.97
2022-12-01T11:02:49.721Z,4.93
2022-12-01T11:07:53.523Z,4.69
2022-12-01T11:13:01.775Z,4.53
2022-12-01T11:18:20.139Z,4.41
2022-12-01T11:23:29.963Z,4.29
2022-12-01T11:28:35.056Z,4.29
2022-12-01T11:33:47.480Z,4.25
2022-12-01T11:39:04.102Z,4.01
2022-12-01T11:44:43.591Z,3.88
2022-12-01T11:49:47.450Z,3.78
2022-12-01T11:55:05.565Z,3.82
2022-12-01T12:00:14.502Z,3.89
2022-12-01T12:05:46.055Z,3.92
2022-12-01T12:10:49.340Z,3.97
2022-12-01T12:15:55.852Z,3.89
2022-12-01T12:21:17.803Z,3.79
2022-12-01T12:26:30.839Z,3.73
2022-12-01T12:31:39.986Z,3.61
2022-12-01T12:36:59.783Z,3.50
2022-12-01T12:42:13.640Z,3.50
2022-12-01T12:47:43.072Z,3.50
2022-12-01T12:52:52.011Z,3.51
2022-12-01T12:58:21.634Z,3.47
2022-12-01T13:03:57.306Z,3.39
2022-12-01T13:09:12.697Z,3.42
2022-12-01T13:14:39.783Z,3.38
2022-12-01T13:19:45.709Z,3.33
2022-12-01T13:24:49.560Z,3.30
2022-12-01T13:29:55.040Z,3.28
2022-12-01T13:34:59.767Z,3.22
2022-12-01T13:40:27.860Z,3.18
2022-12-01T13:45:36.904Z,3.18
2022-12-01T13:50:44.002Z,3.22
2022-12-01T13:55:58.578Z,3.25
2022-12-01T14:01:20.285Z,3.22
2022-12-01T14:06:28.751Z,3.16
2022-12-01T14:11:34.947Z,3.11
2022-12-01T14:16:53.639Z,3.11
2022-12-01T14:21:57.857Z,3.10
2022-12-01T14:27:02.887Z,3.10
2022-12-01T14:32:09.473Z,3.09
2022-12-01T14:37:17.804Z,3.10
2022-12-01T14:42:57.667Z,3.08
2022-12-01T14:48:06.460Z,3.12
2022-12-01T14:53:32.762Z,3.12
2022-12-01T14:58:36.276Z,3.09
2022-12-01T15:03:39.583Z,3.06
2022-12-01T15:08:53.295Z,3.10
2022-12-01T15:14:02.938Z,3.19
2022-12-01T15:19:23.070Z,3.20
2022-12-01T15:24:30.860Z,3.23
2022-12-01T15:29:45.902Z,3.31
2022-12-01T15:34:53.624Z,3.37
2022-12-01T15:40:47.782Z,3.36
2022-12-01T15:45:29.581Z,3.31
2022-12-01T15:50:45.976Z,3.26
2022-12-01T15:55:57.138Z,3.14
2022-12-01T16:01:10.239Z,3.12
2022-12-01T16:06:14.104Z,3.15
2022-12-01T16:11:19.274Z,3.18
2022-12-01T16:16:39.352Z,3.20
2022-12-01T16:21:46.666Z,3.25
2022-12-01T16:26:53.872Z,3.32
2022-12-01T16:32:26.150Z,3.34
2022-12-01T16:37:30.084Z,3.26
2022-12-01T16:42:33.288Z,3.27
2022-12-01T16:47:36.708Z,3.26
2022-12-01T16:52:44.683Z,3.20
2022-12-01T16:57:48.752Z,3.18
2022-12-01T17:02:53.955Z,3.16
2022-12-01T17:07:57.506Z,3.06
2022-12-01T17:13:01.038Z,3.03
2022-12-01T17:18:04.710Z,3.04
2022-12-01T17:23:08.608Z,2.96
2022-12-01T17:28:12.301Z,2.89
2022-12-01T17:33:15.717Z,2.81
2022-12-01T17:38:19.131Z,2.72
2022-12-01T17:43:23.468Z,2.64
2022-12-01T17:48:27.183Z,2.59
2022-12-01T17:53:30.497Z,2.62
2022-12-01T17:58:34.008Z,2.65
2022-12-01T18:03:37.320Z,2.76
2022-12-01T18:08:41.966Z,2.86
2022-12-01T18:13:48.202Z,2.92
2022-12-01T18:18:51.552Z,2.97
2022-12-01T18:23:57.486Z,3.06
2022-12-01T18:29:07.437Z,3.08
2022-12-01T18:34:12.238Z,3.07
2022-12-01T18:39:16.777Z,2.94
2022-12-01T18:44:20.292Z,2.88
2022-12-01T18:49:23.709Z,2.85
2022-12-01T18:54:27.226Z,2.77
2022-12-01T18:59:30.738Z,2.58
2022-12-01T19:04:34.054Z,2.43
2022-12-01T19:09:37.460Z,2.45
2022-12-01T19:14:40.973Z,2.50
2022-12-01T19:19:44.593Z,2.57
2022-12-01T19:24:50.428Z,2.58
2022-12-01T19:29:54.150Z,2.58
2022-12-01T19:34:57.911Z,2.54
2022-12-01T19:40:01.321Z,2.48
2022-12-01T19:45:06.962Z,2.41
2022-12-01T19:50:10.909Z,2.36
2022-12-01T19:55:14.123Z,2.36
2022-12-01T20:00:18.547Z,2.36
2022-12-01T20:05:21.763Z,2.40
2022-12-01T20:10:25.279Z,2.36
2022-12-01T20:15:28.896Z,2.34
2022-12-01T20:20:32.207Z,2.27
2022-12-01T20:25:36.029Z,2.16
2022-12-01T20:30:40.879Z,2.05
2022-12-01T20:35:44.498Z,1.97
2022-12-01T20:40:51.338Z,1.96
2022-12-01T20:45:55.139Z,1.96
2022-12-01T20:51:03.188Z,2.02
2022-12-01T20:56:09.133Z,2.07
2022-12-01T21:01:15.809Z,2.08
2022-12-01T21:06:20.773Z,2.07
2022-12-01T21:11:47.196Z,2.05
2022-12-01T21:16:55.220Z,2.04
2022-12-01T21:21:59.147Z,2.04
2022-12-01T21:27:14.023Z,2.02
2022-12-01T21:32:19.078Z,2.00
2022-12-01T21:37:24.886Z,2.01
2022-12-01T21:42:31.355Z,2.01
2022-12-01T21:47:35.366Z,2.00
2022-12-01T21:52:42.050Z,1.98
2022-12-01T21:57:47.312Z,1.93
2022-12-01T22:02:52.999Z,1.85
2022-12-01T22:08:13.280Z,1.78
2022-12-01T22:13:16.589Z,1.74
2022-12-01T22:18:25.015Z,1.71
2022-12-01T22:23:36.420Z,1.68
2022-12-01T22:28:39.834Z,1.64
2022-12-01T22:33:43.146Z,1.62
2022-12-01T22:38:46.558Z,1.52
2022-12-01T22:43:52.226Z,1.48
2022-12-01T22:48:57.070Z,1.44
2022-12-01T22:54:22.295Z,1.40
2022-12-01T22:59:36.152Z,1.41
2022-12-01T23:04:41.697Z,1.42
2022-12-01T23:09:45.334Z,1.41
2022-12-01T23:14:51.941Z,1.33
2022-12-01T23:20:24.927Z,1.27
2022-12-01T23:25:28.854Z,1.22
2022-12-01T23:30:32.473Z,1.19
2022-12-01T23:35:45.824Z,1.17
2022-12-01T23:40:51.524Z,1.19
2022-12-01T23:46:18.239Z,1.16
2022-12-01T23:51:31.178Z,1.14
2022-12-01T23:56:39.397Z,1.13
